maennersache.de alexa rank chart, maennersache.de alexa rank daily changes

maennersache.de alexa rank chart, maennersache.de alexa rank daily changes

maennersache.de
Actual rank:
108 112

RANK HISTORY

Date Rank Diff
2018/06/20 108 112 -14 428
2018/06/19 122 540 +49 887
2018/06/18 72 653 -14 085
2018/06/17 86 738 -42 610
2018/06/16 129 348 +42 446
2018/06/15 86 902 +12 519
2018/06/14 74 383 -61 201
2018/06/13 135 584 +25 737
2018/06/12 109 847 -49 080
2018/06/11 158 927 +28 717
2018/06/10 130 210 +43 498
2018/06/09 86 712 -43 781
2018/06/08 130 493 +30 739
2018/06/07 99 754 -35 133
2018/06/06 134 887 +14 831
2018/06/05 120 056 -9 087
2018/06/04 129 143 -19 670
2018/06/03 148 813 -57 597
2018/06/02 206 410 -1 413
2018/06/01 207 823 +138 790
2018/05/31 69 033 -54 271
2018/05/30 123 304 -30 354
2018/05/29 153 658 +55 619
2018/05/28 98 039 -15 496
2018/05/27 113 535 +42 289
2018/05/26 71 246 -51 347
2018/05/25 122 593 +10 778
2018/05/24 111 815 -85 825
2018/05/23 197 640 -30 340
2018/05/22 227 980 +103 862
2018/05/21 124 118 +48 880
2018/05/20 75 238 -26 722
2018/05/19 101 960 -71 616
2018/05/18 173 576 +67 298
2018/05/17 106 278 +22 855
2018/05/16 83 423 +10 871
2018/05/15 72 552 -81 231
2018/05/14 153 783 -86 378
2018/05/13 240 161 -66 267
2018/05/12 306 428 +188 463
2018/05/11 117 965 -74 985
2018/05/10 192 950 +81 916
2018/05/09 111 034 +59 020
2018/05/08 52 014 -46 804
2018/05/07 98 818 -321 918
2018/05/06 420 736 +238 731
2018/05/05 182 005 +102 142
2018/05/04 79 863 -65 720
2018/05/03 145 583 +13 448
2018/05/02 132 135 -8 890
2018/05/01 141 025 -16 754
2018/04/30 157 779 +5 807
2018/04/29 151 972 +2 726
2018/04/28 149 246 -162 726
2018/04/27 311 972 +155 224
2018/04/26 156 748 +47 959
2018/04/25 108 789 -45 785
2018/04/24 154 574 -157 398
2018/04/23 311 972 +182 608
2018/04/22 129 364 -64 040
2018/04/21 193 404

WIDGET FOR YOUR SITE

DOMAINS WITH THE NEAREST RANK

Domain Rank
selor.be 108 107
porncorporation.com 108 108
stonetemple.com 108 109
ubunlog.com 108 110
knoll.com 108 111
maennersache.de 108 112
thespreadsheetguru.com 108 113
sidewalklabs.com 108 114
smc.eu 108 115
gdpr-info.eu 108 116
imglobal.com 108 117

DOMAINS WITH THE NEAREST RANK BY TLD .de

Domain Rank
airliners.de 108 062
vhv.de 108 063
smartmobil.de 108 067
spartoo.de 108 068
autoextrem.de 108 072
maennersache.de 108 112
bundesbank.de 108 210
boerse-frankfurt.de 108 215
volksversand.de 108 263
jurion.de 108 274
aldifotos.de 108 286